Pagina principale
METAR-TAF:

METAR-TAF

Aeroporti :

Batman, Turchia

latitudine: 37-52N, longitudine: 041-10E, altezza: 540 m

Osservazione

Il bollettino è stato emesso 26 minuti fa, alle 22:20 UTC
Vento 3 kt da est
Temperature 13°C
Umidità 47%
Pressione 1019 hPa
Visibilità 10 km o più
nessuna nube inferiore a 1500 m e nessun cumulonembo

METAR: LTCJ 292220Z 09003KT CAVOK 13/02 Q1019

Ora: 01:46 (22:46 UTC)

Previsione

Il bollettino è stato emesso 6 ore e 6 minuti fa, alle 16:40 UTC
Previsione valida dal 29 alle 18 UTC al 30 alle 18 UTC
Vento 2 kt da direzioni variabili
Visibilità 10 km o più
nessuna nube inferiore a 1500 m e nessun cumulonembo

TAF: LTCJ 291640Z 2918/3018 VRB02KT CAVOK

Osservazioni e previsioni meteorologiche di più di 4000 aeroporti (messaggi METAR e TAF).

Le stazioni disponibili sono rappresentate dai dischi gialli e rossi sulla carta.

Puntare il mouse per vedere il nome della stazione.

Clicca sopra per visualizzare le osservazioni e previsioni meteorologiche.

Per cambiare la mappa : fare clic sui pulsanti verdi con una croce nera per ingrandire, il pulsante verde con un trattino per diminuire, o sulla freccia verde per le mappe adiacenti.


METAR-TAF: